Time;durP1;ratioP1;P1;durP2;ratioP2;P2;SDS_P1;SDS_P2;PMS_P1;PMS_P2;Temp;Humidity;BMP_temperature;BMP_pressure;BME280_temperature;BME280_humidity;BME280_pressure;Samples;Min_cycle;Max_cycle;Signal;HPM_P1;HPM_P2
2021/06/03 00:02:11;;;;;;;9.02;6.82;;;409.60;1587.20;;;;;;5093967;28;20024;-67
2021/06/03 00:04:36;;;;;;;10.68;6.53;;;409.60;1587.20;;;;;;5095437;28;20095;-66
2021/06/03 00:07:03;;;;;;;11.82;6.57;;;409.60;1587.20;;;;;;5095144;28;20055;-68
2021/06/03 00:09:29;;;;;;;11.00;7.22;;;409.60;1587.20;;;;;;5094820;28;20016;-66
2021/06/03 00:11:56;;;;;;;10.57;6.53;;;409.60;1587.20;;;;;;5094903;28;20380;-66
2021/06/03 00:14:21;;;;;;;12.77;6.85;;;384.90;1561.60;;;;;;5094842;28;20035;-66
2021/06/03 00:16:47;;;;;;;13.68;6.72;;;384.90;1561.60;;;;;;5094990;28;20024;-66
2021/06/03 00:19:13;;;;;;;12.63;7.53;;;384.80;1561.60;;;;;;5094623;28;20557;-66
2021/06/03 00:21:44;;;;;;;8.77;6.25;;;384.80;1561.60;;;;;;5094878;28;20020;-68
2021/06/03 00:24:11;;;;;;;11.88;6.57;;;384.80;1587.20;;;;;;5094504;28;20123;-66
2021/06/03 00:26:37;;;;;;;13.20;6.20;;;384.70;1587.20;;;;;;5094781;28;20047;-66
2021/06/03 00:29:05;;;;;;;10.82;6.70;;;384.70;1587.20;;;;;;5094529;28;20470;-66
2021/06/03 00:31:32;;;;;;;13.38;5.75;;;384.70;1587.20;;;;;;5094570;28;20043;-66
2021/06/03 00:33:58;;;;;;;8.15;5.32;;;384.70;1587.20;;;;;;5094697;28;20027;-66
2021/06/03 00:36:24;;;;;;;7.65;5.68;;;384.70;1561.60;;;;;;5094616;28;20375;-66
2021/06/03 00:38:50;;;;;;;8.57;5.63;;;384.60;1587.20;;;;;;5094917;28;20024;-68
2021/06/03 00:41:17;;;;;;;10.05;5.70;;;384.60;1587.20;;;;;;5094519;28;20035;-67
2021/06/03 00:43:43;;;;;;;8.85;5.32;;;384.60;1587.20;;;;;;5094248;28;20039;-66
2021/06/03 00:46:10;;;;;;;8.27;5.22;;;384.60;1587.20;;;;;;5094352;28;20024;-68
2021/06/03 00:48:36;;;;;;;7.35;5.47;;;384.60;1587.20;;;;;;5094595;28;20016;-66
2021/06/03 00:51:05;;;;;;;8.45;5.32;;;384.50;1587.20;;;;;;5094224;28;20024;-67
2021/06/03 00:53:33;;;;;;;8.40;5.50;;;384.50;1587.20;;;;;;5093896;28;20496;-68
2021/06/03 00:56:00;;;;;;;10.40;5.55;;;384.50;1587.20;;;;;;5094170;28;20035;-66
2021/06/03 00:58:26;;;;;;;7.90;5.55;;;384.50;1587.20;;;;;;5094072;28;20024;-67
2021/06/03 01:00:54;;;;;;;10.40;5.43;;;384.50;1587.20;;;;;;5094134;28;20448;-66
2021/06/03 01:03:21;;;;;;;8.40;5.50;;;384.40;1587.20;;;;;;5094100;28;20025;-66
2021/06/03 01:05:54;;;;;;;7.07;5.68;;;384.40;1587.20;;;;;;5094175;28;20024;-68
2021/06/03 01:08:25;;;;;;;7.80;5.32;;;384.40;1587.20;;;;;;5094016;28;20077;-66
2021/06/03 01:10:59;;;;;;;7.53;5.47;;;384.30;1612.80;;;;;;5094102;28;20024;-68
2021/06/03 01:13:41;;;;;;;;;;;384.30;1587.20;;;;;;5094323;28;20035;-67
2021/06/03 01:16:07;;;;;;;8.55;5.55;;;384.30;1587.20;;;;;;5094116;28;19904;-68
2021/06/03 01:18:36;;;;;;;12.93;6.07;;;384.20;1612.80;;;;;;5094015;28;20099;-67
2021/06/03 01:21:07;;;;;;;8.27;5.82;;;384.20;1587.20;;;;;;5093770;28;20473;-68
2021/06/03 01:24:12;;;;;;;11.80;6.78;;;384.20;1587.20;;;;;;5093664;28;20048;-68
2021/06/03 01:26:38;;;;;;;9.57;6.28;;;384.20;1587.20;;;;;;5031629;28;20038;-66
2021/06/03 01:29:04;;;;;;;12.38;6.05;;;384.20;1587.20;;;;;;5031464;28;20109;-66
2021/06/03 01:31:31;;;;;;;12.20;6.30;;;384.20;1587.20;;;;;;5031470;28;20124;-66
2021/06/03 01:33:56;;;;;;;7.82;6.05;;;384.10;1587.20;;;;;;5031492;28;20357;-65
2021/06/03 01:36:24;;;;;;;7.88;6.32;;;384.10;1587.20;;;;;;5031524;28;20033;-67
2021/06/03 01:38:49;;;;;;;10.40;6.50;;;384.10;1587.20;;;;;;5031502;28;20507;-66
2021/06/03 01:41:16;;;;;;;8.38;6.28;;;384.10;1612.80;;;;;;5031655;28;20071;-68
2021/06/03 01:43:45;;;;;;;12.80;7.40;;;384.10;1587.20;;;;;;5031586;28;20036;-68
2021/06/03 01:46:11;;;;;;;9.63;6.90;;;384.10;1612.80;;;;;;5031405;28;20033;-67
2021/06/03 01:48:38;;;;;;;11.23;6.93;;;384.00;1612.80;;;;;;5031460;28;20022;-68
2021/06/03 01:51:06;;;;;;;8.55;7.28;;;384.00;1612.80;;;;;;5031303;28;20487;-65
2021/06/03 01:53:33;;;;;;;11.02;7.47;;;384.10;1612.80;;;;;;5031116;28;20553;-65
2021/06/03 01:56:05;;;;;;;10.80;7.15;;;384.00;1612.80;;;;;;5031225;28;20427;-68
2021/06/03 01:58:31;;;;;;;7.97;6.88;;;384.00;1612.80;;;;;;5031224;28;20017;-66
2021/06/03 02:00:58;;;;;;;9.60;7.50;;;384.00;1612.80;;;;;;5031211;28;20384;-66
2021/06/03 02:03:25;;;;;;;15.45;7.43;;;384.00;1612.80;;;;;;5054519;28;20043;-67
2021/06/03 02:05:52;;;;;;;14.65;7.90;;;359.30;1612.80;;;;;;5093471;28;20020;-66
2021/06/03 02:08:17;;;;;;;13.73;7.57;;;359.30;1612.80;;;;;;5097465;28;20020;-66
2021/06/03 02:10:44;;;;;;;10.55;7.30;;;359.30;1612.80;;;;;;5097212;28;20032;-68
2021/06/03 02:13:15;;;;;;;11.18;7.75;;;359.30;1612.80;;;;;;5095852;28;20032;-67
2021/06/03 02:15:59;;;;;;;10.38;7.25;;;359.30;1612.80;;;;;;5097173;28;20040;-65
2021/06/03 02:18:34;;;;;;;11.23;7.05;;;359.20;1612.80;;;;;;5097266;28;20032;-66
2021/06/03 02:21:01;;;;;;;8.57;6.55;;;359.10;1612.80;;;;;;5097206;28;20482;-68
2021/06/03 02:23:28;;;;;;;10.15;6.45;;;359.20;1612.80;;;;;;5096810;28;20493;-66
2021/06/03 02:26:00;;;;;;;21.85;7.70;;;359.10;1612.80;;;;;;5097133;28;20026;-68
2021/06/03 02:28:27;;;;;;;15.95;6.90;;;359.10;1638.40;;;;;;5097078;28;20028;-68
2021/06/03 02:30:55;;;;;;;8.82;7.07;;;359.10;1638.40;;;;;;5096817;28;20020;-68
2021/06/03 02:33:21;;;;;;;10.77;6.57;;;359.10;1638.40;;;;;;5096718;28;20481;-68
2021/06/03 02:35:47;;;;;;;10.25;7.07;;;359.10;1612.80;;;;;;5097139;28;20069;-65
2021/06/03 02:38:15;;;;;;;10.50;7.78;;;359.10;1612.80;;;;;;5096694;28;20073;-68
2021/06/03 02:40:42;;;;;;;12.50;7.78;;;359.10;1612.80;;;;;;5096684;28;20020;-67
2021/06/03 02:43:08;;;;;;;12.68;7.65;;;359.10;1612.80;;;;;;5096770;28;20397;-66
2021/06/03 02:45:34;;;;;;;11.50;6.82;;;359.00;1638.40;;;;;;5096651;28;20055;-68
2021/06/03 02:48:01;;;;;;;15.80;7.82;;;359.00;1638.40;;;;;;5096648;28;20024;-66
2021/06/03 02:50:28;;;;;;;11.80;7.30;;;359.00;1638.40;;;;;;5096188;28;20013;-68
2021/06/03 02:52:55;;;;;;;10.73;8.05;;;359.00;1638.40;;;;;;5095937;28;20236;-65
2021/06/03 02:55:23;;;;;;;14.90;8.15;;;359.00;1638.40;;;;;;5093623;28;20432;-68
2021/06/03 02:57:52;;;;;;;13.98;8.27;;;359.00;1638.40;;;;;;5095526;28;20024;-66
2021/06/03 03:00:21;;;;;;;13.68;7.57;;;359.00;1638.40;;;;;;5095734;28;20095;-68
2021/06/03 03:02:48;;;;;;;9.95;7.55;;;358.90;1638.40;;;;;;5096028;28;20542;-68
2021/06/03 03:05:14;;;;;;;15.18;8.07;;;358.90;1638.40;;;;;;5096451;28;20024;-65
2021/06/03 03:07:40;;;;;;;12.82;8.20;;;358.90;1638.40;;;;;;5096301;28;20024;-67
2021/06/03 03:10:11;;;;;;;12.73;8.57;;;358.90;1638.40;;;;;;5096211;28;20051;-66
2021/06/03 03:12:37;;;;;;;9.55;8.32;;;358.90;1638.40;;;;;;5095980;28;20036;-68
2021/06/03 03:15:06;;;;;;;10.82;7.38;;;358.90;1638.40;;;;;;5095951;28;20385;-65
2021/06/03 03:17:32;;;;;;;10.50;7.70;;;358.90;1638.40;;;;;;5092598;28;20096;-66
2021/06/03 03:19:58;;;;;;;14.63;9.07;;;358.80;1638.40;;;;;;5095037;28;20023;-66
2021/06/03 03:22:24;;;;;;;18.63;8.65;;;358.80;1638.40;;;;;;5094205;28;20354;-65
2021/06/03 03:24:50;;;;;;;15.18;8.48;;;358.80;1638.40;;;;;;5095482;28;20032;-65
2021/06/03 03:27:15;;;;;;;13.77;8.50;;;358.90;1638.40;;;;;;5095759;28;20032;-67
2021/06/03 03:29:42;;;;;;;14.43;8.48;;;358.90;1638.40;;;;;;5095757;28;20028;-68
2021/06/03 03:32:08;;;;;;;36.63;9.95;;;358.90;1638.40;;;;;;5095432;28;20036;-68
2021/06/03 03:34:34;;;;;;;39.13;9.98;;;358.80;1638.40;;;;;;5095667;28;20027;-68
2021/06/03 03:37:00;;;;;;;20.88;8.60;;;358.90;1638.40;;;;;;5095748;28;20416;-67
2021/06/03 03:39:26;;;;;;;14.23;8.20;;;358.90;1638.40;;;;;;5095740;28;20104;-66
2021/06/03 03:41:52;;;;;;;12.93;8.30;;;358.90;1638.40;;;;;;5095839;28;20024;-68
2021/06/03 03:44:18;;;;;;;20.02;8.93;;;358.90;1638.40;;;;;;5095465;28;20103;-68
2021/06/03 03:46:44;;;;;;;14.38;7.75;;;358.90;1664.00;;;;;;5095417;28;20052;-67
2021/06/03 03:49:09;;;;;;;15.70;8.57;;;358.90;1638.40;;;;;;5095511;28;20047;-65
2021/06/03 03:51:35;;;;;;;12.18;8.20;;;358.90;1664.00;;;;;;5095073;28;20034;-68
2021/06/03 03:54:01;;;;;;;13.93;8.23;;;358.90;1664.00;;;;;;5095356;28;20039;-65
2021/06/03 03:56:27;;;;;;;10.05;8.27;;;358.90;1638.40;;;;;;5095271;28;20020;-69
2021/06/03 03:58:52;;;;;;;11.38;8.13;;;358.90;1638.40;;;;;;5095205;28;20055;-68
2021/06/03 04:01:18;;;;;;;15.23;8.40;;;358.90;1664.00;;;;;;5095298;28;20024;-69
2021/06/03 04:03:44;;;;;;;13.75;7.75;;;358.90;1638.40;;;;;;5095005;28;20020;-65
2021/06/03 04:06:10;;;;;;;15.82;7.82;;;359.00;1638.40;;;;;;5094627;28;20032;-65
2021/06/03 04:08:36;;;;;;;20.08;8.88;;;359.00;1664.00;;;;;;5094954;28;20091;-65
2021/06/03 04:11:02;;;;;;;20.35;8.65;;;359.10;1664.00;;;;;;5095067;28;20028;-68
2021/06/03 04:13:28;;;;;;;13.95;8.02;;;359.10;1638.40;;;;;;5095031;28;20489;-65
2021/06/03 04:15:54;;;;;;;18.95;7.95;;;359.10;1664.00;;;;;;5094976;28;20067;-69
2021/06/03 04:18:21;;;;;;;18.65;8.25;;;359.20;1664.00;;;;;;5094990;28;20020;-68
2021/06/03 04:20:47;;;;;;;17.65;8.13;;;359.20;1638.40;;;;;;5094928;28;20024;-68
2021/06/03 04:23:13;;;;;;;20.02;8.40;;;359.20;1638.40;;;;;;5094721;28;20052;-69
2021/06/03 04:25:39;;;;;;;11.30;7.88;;;384.00;1664.00;;;;;;5094846;28;20384;-68
2021/06/03 04:28:07;;;;;;;11.57;7.45;;;384.00;1664.00;;;;;;5094763;28;20030;-68
2021/06/03 04:30:35;;;;;;;14.00;7.80;;;384.10;1638.40;;;;;;5093928;28;20066;-65
2021/06/03 04:33:01;;;;;;;13.90;7.10;;;384.10;1638.40;;;;;;5095078;28;20048;-68
2021/06/03 04:35:28;;;;;;;10.10;7.07;;;384.30;1638.40;;;;;;5094646;28;20515;-65
2021/06/03 04:37:54;;;;;;;9.85;6.45;;;384.40;1638.40;;;;;;5094617;28;20024;-66
2021/06/03 04:40:24;;;;;;;10.07;6.38;;;384.50;1612.80;;;;;;5094582;28;20052;-69
2021/06/03 04:42:51;;;;;;;11.02;5.68;;;384.70;1612.80;;;;;;5094384;28;20035;-68
2021/06/03 04:45:19;;;;;;;6.78;5.40;;;384.80;1587.20;;;;;;5094573;28;20024;-65
2021/06/03 04:47:45;;;;;;;9.30;6.00;;;409.60;1612.80;;;;;;5094427;28;20031;-66
2021/06/03 04:50:13;;;;;;;11.93;5.22;;;409.70;1587.20;;;;;;5094179;28;20059;-65
2021/06/03 04:52:40;;;;;;;12.55;5.50;;;409.90;1587.20;;;;;;5094235;28;20043;-65
2021/06/03 04:55:13;;;;;;;8.63;5.25;;;410.00;1561.60;;;;;;5094334;28;20028;-69
2021/06/03 04:57:39;;;;;;;6.18;4.53;;;410.30;1536.00;;;;;;5094260;28;20461;-65
2021/06/03 05:00:09;;;;;;;8.18;4.75;;;410.40;1536.00;;;;;;5094205;28;20028;-69
2021/06/03 05:02:35;;;;;;;13.15;5.10;;;435.20;1510.40;;;;;;5094161;28;20344;-68
2021/06/03 05:05:01;;;;;;;10.55;4.82;;;435.30;1510.40;;;;;;5094026;28;20024;-70
2021/06/03 05:07:27;;;;;;;8.50;4.70;;;435.50;1510.40;;;;;;5094105;28;20024;-65
2021/06/03 05:09:53;;;;;;;9.25;4.55;;;435.60;1459.20;;;;;;5093991;28;20043;-69
2021/06/03 05:12:19;;;;;;;9.23;4.70;;;435.70;1433.60;;;;;;5093903;28;20067;-68
2021/06/03 05:14:44;;;;;;;10.80;4.03;;;436.00;1459.20;;;;;;5094029;28;20024;-69
2021/06/03 05:17:11;;;;;;;10.02;5.25;;;460.80;1484.80;;;;;;5093961;28;20024;-66
2021/06/03 05:19:37;;;;;;;11.50;4.30;;;460.90;1459.20;;;;;;5093953;28;20044;-69
2021/06/03 05:22:04;;;;;;;8.82;4.35;;;461.00;1433.60;;;;;;5093651;28;20023;-65
2021/06/03 05:24:29;;;;;;;5.65;3.97;;;461.20;1433.60;;;;;;5093698;28;20131;-69
2021/06/03 05:26:55;;;;;;;9.52;4.95;;;461.40;1408.00;;;;;;5093954;28;20112;-66
2021/06/03 05:29:21;;;;;;;9.15;3.83;;;461.50;1382.40;;;;;;5093795;28;20028;-66
2021/06/03 05:31:47;;;;;;;7.72;4.38;;;461.60;1382.40;;;;;;5093744;28;20422;-70
2021/06/03 05:34:13;;;;;;;10.93;4.00;;;486.40;1382.40;;;;;;5094149;28;20489;-68
2021/06/03 05:36:39;;;;;;;9.02;3.88;;;486.50;1356.80;;;;;;5094321;28;20017;-65
2021/06/03 05:39:07;;;;;;;5.22;3.92;;;486.70;1356.80;;;;;;5093908;28;20415;-66
2021/06/03 05:41:33;;;;;;;4.43;3.63;;;486.80;1356.80;;;;;;5096740;28;20016;-70
2021/06/03 05:44:00;;;;;;;7.57;3.83;;;486.90;1331.20;;;;;;5097983;28;20032;-65
2021/06/03 05:46:26;;;;;;;9.48;3.95;;;487.10;1305.60;;;;;;5097939;28;20478;-70
2021/06/03 05:48:52;;;;;;;7.65;3.63;;;487.20;1305.60;;;;;;5097827;28;20409;-69
2021/06/03 05:51:18;;;;;;;9.73;3.70;;;512.00;1305.60;;;;;;5097938;28;20024;-65
2021/06/03 05:53:45;;;;;;;8.18;4.10;;;512.20;1280.00;;;;;;5097749;28;20032;-67
2021/06/03 05:56:10;;;;;;;9.77;3.83;;;512.50;1280.00;;;;;;5097437;28;20058;-66
2021/06/03 05:58:36;;;;;;;4.85;3.72;;;512.80;1280.00;;;;;;5097622;28;20032;-65
2021/06/03 06:01:02;;;;;;;7.10;3.65;;;537.60;1305.60;;;;;;5097620;28;20081;-69
2021/06/03 06:06:24;;;;;;;7.03;3.40;;;538.10;1280.00;;;;;;5075092;28;20042;-66
2021/06/03 06:08:52;;;;;;;5.70;3.13;;;538.30;1280.00;;;;;;5075024;28;20052;-70
2021/06/03 06:11:18;;;;;;;6.00;2.95;;;538.50;1254.40;;;;;;5075059;28;20037;-70
2021/06/03 06:13:44;;;;;;;8.85;3.95;;;563.20;1254.40;;;;;;5074541;28;20123;-65
2021/06/03 06:16:11;;;;;;;10.85;3.22;;;563.40;1228.80;;;;;;5074875;28;20024;-70
2021/06/03 06:18:37;;;;;;;8.32;3.10;;;563.60;1228.80;;;;;;5074653;28;20043;-66
2021/06/03 06:21:04;;;;;;;4.63;3.15;;;563.70;1152.00;;;;;;5074713;28;20067;-71
2021/06/03 06:23:32;;;;;;;6.15;2.85;;;563.80;1152.00;;;;;;5074521;28;20174;-70
2021/06/03 06:25:58;;;;;;;4.45;3.33;;;564.00;1177.60;;;;;;5074793;28;20028;-70
2021/06/03 06:28:23;;;;;;;5.70;3.10;;;588.80;1177.60;;;;;;5074709;28;20530;-70
2021/06/03 06:30:49;;;;;;;7.65;3.33;;;588.90;1152.00;;;;;;5074539;28;20029;-71
2021/06/03 06:33:15;;;;;;;7.97;3.40;;;589.10;1177.60;;;;;;5074408;28;20075;-71
2021/06/03 06:35:44;;;;;;;6.03;3.20;;;589.30;1152.00;;;;;;5074399;28;20016;-66
2021/06/03 06:38:10;;;;;;;6.07;3.22;;;589.50;1126.40;;;;;;5074272;28;20075;-70
2021/06/03 06:40:36;;;;;;;5.88;3.58;;;589.70;1126.40;;;;;;5074406;28;20025;-65
2021/06/03 06:43:02;;;;;;;6.38;3.10;;;614.40;1126.40;;;;;;5082950;28;20051;-65
2021/06/03 06:45:29;;;;;;;8.88;3.10;;;614.50;1100.80;;;;;;5097855;28;20466;-70
2021/06/03 06:47:56;;;;;;;6.72;2.78;;;614.70;1100.80;;;;;;5096562;28;20020;-70
2021/06/03 06:50:23;;;;;;;5.32;2.92;;;614.90;1075.20;;;;;;5096704;28;20028;-65
2021/06/03 06:52:50;;;;;;;7.60;2.90;;;615.00;1075.20;;;;;;5095880;28;20439;-70
2021/06/03 06:55:16;;;;;;;10.75;2.92;;;615.20;1075.20;;;;;;5096836;28;20028;-71
2021/06/03 06:57:41;;;;;;;6.00;2.45;;;615.30;1075.20;;;;;;5096547;28;20020;-65
2021/06/03 07:00:11;;;;;;;5.68;2.58;;;640.10;1049.60;;;;;;5096445;28;20047;-71
2021/06/03 07:02:37;;;;;;;5.07;2.50;;;640.30;1049.60;;;;;;5096557;28;20024;-70
2021/06/03 07:05:07;;;;;;;6.32;2.33;;;640.40;1024.00;;;;;;5096481;28;20020;-65
2021/06/03 07:07:33;;;;;;;6.18;2.25;;;640.60;998.40;;;;;;5095813;28;20028;-71
2021/06/03 07:09:59;;;;;;;5.70;2.67;;;640.70;972.80;;;;;;5095854;28;20028;-65
2021/06/03 07:12:25;;;;;;;4.45;2.05;;;640.80;972.80;;;;;;5096224;28;20093;-68
2021/06/03 07:14:51;;;;;;;5.07;2.70;;;665.60;998.40;;;;;;5096043;28;20021;-70
2021/06/03 07:17:17;;;;;;;3.55;2.08;;;665.80;972.80;;;;;;5095695;28;20032;-67
2021/06/03 07:19:43;;;;;;;4.40;2.20;;;666.00;947.20;;;;;;5095882;28;20412;-71
2021/06/03 07:22:09;;;;;;;3.35;1.85;;;666.10;947.20;;;;;;5095918;28;20034;-69
2021/06/03 07:24:35;;;;;;;3.78;2.40;;;666.30;947.20;;;;;;5095645;28;20040;-70
2021/06/03 07:27:03;;;;;;;4.13;2.00;;;666.50;921.60;;;;;;5096232;28;20024;-71
2021/06/03 07:29:28;;;;;;;4.63;2.47;;;691.20;921.60;;;;;;5095793;28;20073;-71
2021/06/03 07:31:54;;;;;;;2.95;1.92;;;691.40;896.00;;;;;;5095157;28;20031;-69
2021/06/03 07:34:20;;;;;;;6.20;2.70;;;691.40;870.40;;;;;;5095005;28;20376;-70
2021/06/03 07:36:46;;;;;;;6.65;2.38;;;691.60;870.40;;;;;;5095772;28;20020;-70
2021/06/03 07:39:12;;;;;;;4.72;2.05;;;691.70;870.40;;;;;;5095643;28;20032;-66
2021/06/03 07:41:38;;;;;;;3.35;2.05;;;691.80;870.40;;;;;;5095741;28;20103;-71
2021/06/03 07:44:04;;;;;;;2.97;2.03;;;692.00;844.80;;;;;;5095131;28;20044;-70
2021/06/03 07:46:31;;;;;;;6.82;2.03;;;716.80;870.40;;;;;;5095602;28;20026;-65
2021/06/03 07:48:56;;;;;;;5.40;2.08;;;716.90;870.40;;;;;;5095592;28;20024;-71
2021/06/03 07:51:22;;;;;;;4.90;2.00;;;717.00;844.80;;;;;;5095464;28;20435;-65
2021/06/03 07:53:48;;;;;;;6.57;1.88;;;717.10;844.80;;;;;;5095353;28;20028;-70
2021/06/03 07:56:15;;;;;;;4.22;1.90;;;717.30;844.80;;;;;;5095302;28;20120;-66
2021/06/03 07:58:41;;;;;;;2.35;1.92;;;717.40;844.80;;;;;;5095395;28;20363;-72
2021/06/03 08:01:07;;;;;;;3.05;2.10;;;717.50;819.20;;;;;;5095298;28;20031;-70
2021/06/03 08:03:32;;;;;;;5.65;1.83;;;717.70;819.20;;;;;;5094703;28;20370;-68
2021/06/03 08:05:58;;;;;;;3.55;2.00;;;742.40;844.80;;;;;;5094871;28;20028;-69
2021/06/03 08:08:24;;;;;;;4.60;1.65;;;742.50;819.20;;;;;;5095204;28;20020;-71
2021/06/03 08:10:50;;;;;;;5.53;1.90;;;742.60;793.60;;;;;;5095170;28;20484;-65
2021/06/03 08:13:16;;;;;;;3.58;2.05;;;742.60;793.60;;;;;;5095034;28;20043;-70
2021/06/03 08:15:43;;;;;;;5.13;1.90;;;742.70;768.00;;;;;;5094733;28;20030;-66
2021/06/03 08:18:10;;;;;;;6.28;2.42;;;742.80;793.60;;;;;;5094757;28;20028;-66
2021/06/03 08:20:37;;;;;;;4.82;2.10;;;742.90;793.60;;;;;;5094676;28;20028;-66
2021/06/03 08:23:05;;;;;;;3.10;1.90;;;742.90;768.00;;;;;;5094637;28;20105;-69
2021/06/03 08:25:31;;;;;;;5.20;1.83;;;743.00;768.00;;;;;;5094930;28;20044;-69
2021/06/03 08:27:58;;;;;;;2.50;1.73;;;743.10;793.60;;;;;;5095072;28;20027;-66
2021/06/03 08:30:24;;;;;;;4.85;1.83;;;743.20;742.40;;;;;;5094734;28;20020;-70
2021/06/03 08:32:51;;;;;;;3.80;1.73;;;743.20;768.00;;;;;;5094750;28;20035;-66
2021/06/03 08:35:19;;;;;;;4.50;2.20;;;768.00;768.00;;;;;;5094576;28;20060;-70
2021/06/03 08:37:48;;;;;;;6.57;2.17;;;768.00;716.80;;;;;;5095129;28;20024;-69
2021/06/03 08:40:18;;;;;;;5.63;2.10;;;768.10;716.80;;;;;;5094600;28;20038;-70
2021/06/03 08:42:45;;;;;;;5.10;2.35;;;768.30;742.40;;;;;;5094293;28;20020;-66
2021/06/03 08:45:12;;;;;;;3.55;2.10;;;768.40;716.80;;;;;;5094376;28;20024;-70
2021/06/03 08:47:39;;;;;;;6.03;1.88;;;768.50;716.80;;;;;;5094510;28;20028;-66
2021/06/03 08:50:06;;;;;;;2.83;1.65;;;768.50;691.20;;;;;;5092944;28;20474;-69
2021/06/03 08:52:32;;;;;;;4.65;2.00;;;768.60;716.80;;;;;;5094235;28;20036;-69
2021/06/03 08:54:59;;;;;;;4.93;2.15;;;768.70;691.20;;;;;;5093889;28;20374;-68
2021/06/03 08:57:25;;;;;;;5.95;1.75;;;768.70;691.20;;;;;;5094340;28;20693;-66
2021/06/03 08:59:51;;;;;;;5.45;1.63;;;768.80;691.20;;;;;;5094055;28;20024;-69
2021/06/03 09:02:18;;;;;;;7.60;1.83;;;793.60;691.20;;;;;;5094433;28;20090;-70
2021/06/03 09:04:44;;;;;;;10.82;1.98;;;793.60;716.80;;;;;;5093976;28;20099;-65
2021/06/03 09:07:28;;;;;;;5.40;1.80;;;793.60;691.20;;;;;;5094186;28;20114;-70
2021/06/03 09:09:54;;;;;;;4.63;1.90;;;793.80;691.20;;;;;;5094149;28;20024;-65
2021/06/03 09:12:20;;;;;;;5.90;2.00;;;793.80;691.20;;;;;;5094088;28;20032;-66
2021/06/03 09:14:46;;;;;;;5.55;1.90;;;793.90;665.60;;;;;;5093780;28;20047;-68
2021/06/03 09:17:12;;;;;;;2.63;1.70;;;794.00;665.60;;;;;;5094072;28;20028;-70
2021/06/03 09:19:52;;;;;;;4.07;2.08;;;794.10;691.20;;;;;;5094022;28;20031;-65
2021/06/03 09:22:37;;;;;;;7.63;2.17;;;794.10;665.60;;;;;;5094027;28;20016;-65
2021/06/03 09:25:28;;;;;;;6.15;1.80;;;794.20;665.60;;;;;;5094036;28;20114;-66
2021/06/03 09:27:53;;;;;;;8.90;1.88;;;794.30;665.60;;;;;;5093946;28;20024;-66
2021/06/03 09:30:19;;;;;;;8.43;1.70;;;794.30;665.60;;;;;;5093863;28;20022;-65
2021/06/03 09:32:54;;;;;;;4.97;1.85;;;794.30;640.00;;;;;;5093620;28;20028;-66
2021/06/03 09:35:20;;;;;;;7.15;2.00;;;819.20;665.60;;;;;;5093834;28;20111;-70
2021/06/03 09:37:46;;;;;;;2.75;1.60;;;819.20;665.60;;;;;;5093696;28;20055;-69
2021/06/03 09:40:22;;;;;;;2.50;1.60;;;794.40;665.60;;;;;;5093575;28;20030;-69
2021/06/03 09:43:07;;;;;;;3.15;1.80;;;794.10;640.00;;;;;;5093802;28;20036;-66
2021/06/03 09:46:02;;;;;;;2.47;1.75;;;793.80;665.60;;;;;;5093609;28;20099;-70
2021/06/03 09:48:36;;;;;;;6.43;2.30;;;793.90;640.00;;;;;;5093793;28;20035;-70
2021/06/03 09:51:24;;;;;;;8.50;2.30;;;793.60;640.00;;;;;;5093645;28;20081;-70
2021/06/03 09:53:55;;;;;;;3.92;1.77;;;793.60;640.00;;;;;;5093717;28;20052;-67
2021/06/03 09:56:25;;;;;;;6.13;2.20;;;793.60;665.60;;;;;;5093706;28;20024;-65
2021/06/03 09:58:52;;;;;;;5.43;1.98;;;793.60;640.00;;;;;;5093915;28;20016;-70
2021/06/03 10:01:42;;;;;;;5.32;1.83;;;793.90;640.00;;;;;;5092938;28;20596;-69
2021/06/03 10:04:10;;;;;;;6.80;1.83;;;794.10;640.00;;;;;;5093592;28;20025;-69
2021/06/03 10:06:57;;;;;;;6.47;1.90;;;794.30;640.00;;;;;;5093318;28;20017;-65
2021/06/03 10:09:50;;;;;;;2.50;1.73;;;794.40;614.40;;;;;;5093318;28;20084;-69
2021/06/03 10:12:27;;;;;;;4.40;1.90;;;819.20;665.60;;;;;;5093453;28;20043;-65
2021/06/03 10:15:00;;;;;;;2.30;1.60;;;819.20;614.40;;;;;;5093391;28;20024;-65
2021/06/03 10:17:33;;;;;;;3.47;1.67;;;819.20;640.00;;;;;;5093510;28;20016;-69
2021/06/03 10:20:19;;;;;;;3.65;1.75;;;794.30;640.00;;;;;;5093390;28;20039;-66
2021/06/03 10:22:47;;;;;;;6.40;2.00;;;794.40;640.00;;;;;;5092533;28;20075;-69
2021/06/03 10:25:22;;;;;;;6.82;1.92;;;794.40;640.00;;;;;;5093626;28;20028;-66
2021/06/03 10:27:59;;;;;;;2.35;1.92;;;819.20;640.00;;;;;;5094708;28;20077;-66
2021/06/03 10:30:47;;;;;;;1.73;1.60;;;819.40;614.40;;;;;;5096927;28;20157;-69
2021/06/03 10:33:28;;;;;;;5.50;2.13;;;819.40;588.80;;;;;;5096828;28;20035;-66
2021/06/03 10:35:59;;;;;;;3.35;1.90;;;819.70;588.80;;;;;;5095984;28;20025;-69
2021/06/03 10:38:26;;;;;;;4.07;1.67;;;819.90;588.80;;;;;;5097016;28;20031;-66
2021/06/03 10:41:06;;;;;;;5.30;2.40;;;819.90;588.80;;;;;;5096727;28;20027;-70
2021/06/03 10:43:36;;;;;;;9.70;2.20;;;820.00;563.20;;;;;;5096835;28;20107;-66
2021/06/03 10:46:02;;;;;;;4.00;2.10;;;820.10;614.40;;;;;;5096578;28;20103;-66
2021/06/03 10:48:28;;;;;;;4.80;2.03;;;844.80;614.40;;;;;;5096704;28;20468;-66
2021/06/03 10:50:55;;;;;;;3.60;2.00;;;844.80;614.40;;;;;;5096762;28;20057;-66
2021/06/03 10:53:27;;;;;;;4.57;1.67;;;844.80;588.80;;;;;;5096421;28;20115;-69
2021/06/03 10:56:06;;;;;;;5.20;1.90;;;844.90;614.40;;;;;;5096941;28;20149;-66
2021/06/03 10:58:37;;;;;;;5.07;2.08;;;845.10;588.80;;;;;;5096612;28;20477;-69
2021/06/03 11:01:04;;;;;;;3.05;1.90;;;845.10;588.80;;;;;;5096442;28;20031;-68
2021/06/03 11:03:50;;;;;;;7.20;1.80;;;845.20;614.40;;;;;;5096527;28;20020;-68
2021/06/03 11:06:22;;;;;;;9.88;2.20;;;845.30;588.80;;;;;;5096459;28;20028;-69
2021/06/03 11:09:02;;;;;;;6.55;1.63;;;845.30;588.80;;;;;;5096565;28;20094;-69
2021/06/03 11:11:40;;;;;;;6.72;2.15;;;845.40;588.80;;;;;;5096148;28;20466;-69
2021/06/03 11:14:14;;;;;;;3.95;1.77;;;845.30;563.20;;;;;;5096219;28;20083;-67
2021/06/03 11:16:40;;;;;;;31.17;3.50;;;845.40;563.20;;;;;;5096555;28;20016;-71
2021/06/03 11:19:07;;;;;;;15.13;2.35;;;845.30;563.20;;;;;;5096268;28;20493;-73
2021/06/03 11:21:33;;;;;;;15.13;2.10;;;845.30;537.60;;;;;;5096047;28;20023;-66
2021/06/03 11:24:01;;;;;;;11.07;1.83;;;845.10;537.60;;;;;;5095956;28;20386;-73
2021/06/03 11:26:46;;;;;;;9.68;2.17;;;845.00;537.60;;;;;;5096178;28;20031;-72
2021/06/03 11:29:15;;;;;;;5.57;1.70;;;845.00;563.20;;;;;;5095588;28;20027;-71
2021/06/03 11:31:46;;;;;;;13.07;2.65;;;844.80;563.20;;;;;;5095137;28;20036;-70
2021/06/03 11:34:15;;;;;;;26.70;3.72;;;844.80;588.80;;;;;;5095801;28;20028;-66
2021/06/03 11:36:45;;;;;;;11.65;2.72;;;844.80;588.80;;;;;;5095803;28;20027;-67
2021/06/03 11:39:32;;;;;;;12.48;2.55;;;820.10;537.60;;;;;;5095480;28;20348;-70
2021/06/03 11:42:39;;;;;;;14.02;2.78;;;819.90;537.60;;;;;;5095506;28;20366;-66
2021/06/03 11:45:07;;;;;;;8.70;2.20;;;844.80;588.80;;;;;;5033121;28;20187;-70
2021/06/03 11:47:36;;;;;;;18.55;2.78;;;820.10;537.60;;;;;;5033303;28;20034;-68
2021/06/03 11:50:04;;;;;;;15.15;3.47;;;819.90;537.60;;;;;;5033313;28;20029;-67
2021/06/03 11:52:30;;;;;;;15.55;3.17;;;819.90;537.60;;;;;;5032598;28;20439;-66
2021/06/03 11:55:06;;;;;;;8.10;2.70;;;819.90;537.60;;;;;;5016040;28;20029;-67
2021/06/03 11:57:34;;;;;;;21.20;2.47;;;819.90;537.60;;;;;;5032985;28;20025;-70
2021/06/03 12:00:13;;;;;;;8.23;2.20;;;819.80;563.20;;;;;;5032667;28;20119;-67
2021/06/03 12:02:42;;;;;;;5.50;2.65;;;819.40;537.60;;;;;;5031269;28;20565;-70
2021/06/03 12:05:13;;;;;;;13.77;3.10;;;794.50;563.20;;;;;;5032168;28;20033;-69
2021/06/03 12:07:51;;;;;;;15.63;3.00;;;794.50;563.20;;;;;;5032705;28;20065;-67
2021/06/03 12:10:20;;;;;;;7.05;2.72;;;819.20;537.60;;;;;;5033100;28;20033;-66
2021/06/03 12:12:46;;;;;;;32.38;19.30;;;819.20;537.60;;;;;;5032797;28;20038;-67
2021/06/03 12:15:21;;;;;;;16.02;7.30;;;819.20;563.20;;;;;;5032515;28;20079;-67
2021/06/03 12:17:52;;;;;;;22.98;5.38;;;794.30;563.20;;;;;;5033160;28;20025;-69
2021/06/03 12:20:18;;;;;;;8.43;3.00;;;794.20;588.80;;;;;;5054275;28;20485;-66
2021/06/03 12:22:44;;;;;;;6.07;2.33;;;794.20;588.80;;;;;;5092126;28;20051;-66
2021/06/03 12:25:12;;;;;;;6.25;2.15;;;794.30;588.80;;;;;;5093064;28;20050;-67
2021/06/03 12:27:43;;;;;;;3.42;2.10;;;794.40;563.20;;;;;;5090862;28;20085;-71
2021/06/03 12:30:30;;;;;;;3.25;2.55;;;794.50;588.80;;;;;;5093338;28;20016;-66